sensor_id;sensor_type;location;lat;lon;timestamp;pressure;altitude;pressure_sealevel;temperature;humidity
48622;BME280;34421;48.944;9.460;2023-04-20T00:01:07;98505.66;;;5.61;58.90
48622;BME280;34421;48.944;9.460;2023-04-20T00:03:33;98504.00;;;5.60;59.20
48622;BME280;34421;48.944;9.460;2023-04-20T00:05:59;98499.53;;;5.61;59.15
48622;BME280;34421;48.944;9.460;2023-04-20T00:08:27;98503.28;;;5.66;57.42
48622;BME280;34421;48.944;9.460;2023-04-20T00:10:52;98494.00;;;5.70;57.69
48622;BME280;34421;48.944;9.460;2023-04-20T00:13:17;98485.72;;;5.74;57.09
48622;BME280;34421;48.944;9.460;2023-04-20T00:15:43;98486.22;;;5.77;57.61
48622;BME280;34421;48.944;9.460;2023-04-20T00:18:08;98479.91;;;5.78;57.61
48622;BME280;34421;48.944;9.460;2023-04-20T00:20:33;98477.94;;;5.80;57.08
48622;BME280;34421;48.944;9.460;2023-04-20T00:22:59;98475.44;;;5.79;58.11
48622;BME280;34421;48.944;9.460;2023-04-20T00:25:24;98480.06;;;5.77;57.47
48622;BME280;34421;48.944;9.460;2023-04-20T00:27:49;98472.16;;;5.77;57.89
48622;BME280;34421;48.944;9.460;2023-04-20T00:30:14;98458.69;;;5.71;59.03
48622;BME280;34421;48.944;9.460;2023-04-20T00:32:40;98463.97;;;5.71;58.80
48622;BME280;34421;48.944;9.460;2023-04-20T00:35:05;98457.38;;;5.67;57.84
48622;BME280;34421;48.944;9.460;2023-04-20T00:37:30;98458.91;;;5.62;58.11
48622;BME280;34421;48.944;9.460;2023-04-20T00:39:56;98454.19;;;5.57;58.93
48622;BME280;34421;48.944;9.460;2023-04-20T00:42:21;98459.16;;;5.52;59.29
48622;BME280;34421;48.944;9.460;2023-04-20T00:44:46;98452.78;;;5.46;58.28
48622;BME280;34421;48.944;9.460;2023-04-20T00:47:12;98450.03;;;5.40;59.97
48622;BME280;34421;48.944;9.460;2023-04-20T00:49:37;98449.31;;;5.23;60.32
48622;BME280;34421;48.944;9.460;2023-04-20T00:52:02;98447.63;;;5.07;60.04
48622;BME280;34421;48.944;9.460;2023-04-20T00:54:28;98444.69;;;5.02;59.42
48622;BME280;34421;48.944;9.460;2023-04-20T00:56:54;98440.78;;;4.98;60.37
48622;BME280;34421;48.944;9.460;2023-04-20T00:59:20;98435.50;;;4.98;61.28
48622;BME280;34421;48.944;9.460;2023-04-20T01:01:46;98430.56;;;4.95;60.65
48622;BME280;34421;48.944;9.460;2023-04-20T01:04:11;98424.84;;;4.91;61.45
48622;BME280;34421;48.944;9.460;2023-04-20T01:06:37;98421.53;;;4.89;61.07
48622;BME280;34421;48.944;9.460;2023-04-20T01:09:02;98414.63;;;4.88;60.66
48622;BME280;34421;48.944;9.460;2023-04-20T01:11:27;98415.44;;;4.89;60.19
48622;BME280;34421;48.944;9.460;2023-04-20T01:13:52;98413.50;;;4.83;61.11
48622;BME280;34421;48.944;9.460;2023-04-20T01:16:18;98409.41;;;4.80;61.81
48622;BME280;34421;48.944;9.460;2023-04-20T01:18:47;98403.47;;;4.78;60.77
48622;BME280;34421;48.944;9.460;2023-04-20T01:21:13;98401.03;;;4.76;60.49
48622;BME280;34421;48.944;9.460;2023-04-20T01:23:39;98404.16;;;4.72;61.61
48622;BME280;34421;48.944;9.460;2023-04-20T01:26:05;98404.88;;;4.66;60.86
48622;BME280;34421;48.944;9.460;2023-04-20T01:28:30;98395.47;;;4.63;61.24
48622;BME280;34421;48.944;9.460;2023-04-20T01:30:56;98404.75;;;4.59;61.01
48622;BME280;34421;48.944;9.460;2023-04-20T01:33:21;98384.16;;;4.54;61.33
48622;BME280;34421;48.944;9.460;2023-04-20T01:35:46;98391.59;;;4.51;62.55
48622;BME280;34421;48.944;9.460;2023-04-20T01:38:16;98386.22;;;4.44;61.68
48622;BME280;34421;48.944;9.460;2023-04-20T01:40:41;98380.63;;;4.39;61.85
48622;BME280;34421;48.944;9.460;2023-04-20T01:43:06;98384.78;;;4.33;62.11
48622;BME280;34421;48.944;9.460;2023-04-20T01:45:32;98373.75;;;4.30;63.28
48622;BME280;34421;48.944;9.460;2023-04-20T01:47:57;98378.91;;;4.23;62.02
48622;BME280;34421;48.944;9.460;2023-04-20T01:50:22;98368.22;;;4.17;63.44
48622;BME280;34421;48.944;9.460;2023-04-20T01:52:47;98369.53;;;4.13;63.55
48622;BME280;34421;48.944;9.460;2023-04-20T01:55:12;98364.81;;;4.08;63.22
48622;BME280;34421;48.944;9.460;2023-04-20T01:57:38;98363.50;;;4.04;63.64
48622;BME280;34421;48.944;9.460;2023-04-20T02:00:03;98365.50;;;4.02;63.20
48622;BME280;34421;48.944;9.460;2023-04-20T02:02:29;98348.56;;;3.96;63.43
48622;BME280;34421;48.944;9.460;2023-04-20T02:04:54;98360.59;;;3.91;64.14
48622;BME280;34421;48.944;9.460;2023-04-20T02:07:19;98364.38;;;3.88;63.64
48622;BME280;34421;48.944;9.460;2023-04-20T02:09:44;98358.47;;;3.86;63.69
48622;BME280;34421;48.944;9.460;2023-04-20T02:12:10;98350.91;;;3.83;64.45
48622;BME280;34421;48.944;9.460;2023-04-20T02:14:35;98352.91;;;3.81;64.19
48622;BME280;34421;48.944;9.460;2023-04-20T02:17:00;98350.41;;;3.79;64.15
48622;BME280;34421;48.944;9.460;2023-04-20T02:19:25;98352.56;;;3.76;64.58
48622;BME280;34421;48.944;9.460;2023-04-20T02:21:51;98340.56;;;3.73;64.42
48622;BME280;34421;48.944;9.460;2023-04-20T02:24:16;98347.47;;;3.74;64.80
48622;BME280;34421;48.944;9.460;2023-04-20T02:26:41;98336.94;;;3.74;64.67
48622;BME280;34421;48.944;9.460;2023-04-20T02:29:06;98335.31;;;3.73;64.31
48622;BME280;34421;48.944;9.460;2023-04-20T02:31:32;98335.63;;;3.70;64.37
48622;BME280;34421;48.944;9.460;2023-04-20T02:33:58;98337.63;;;3.68;64.96
48622;BME280;34421;48.944;9.460;2023-04-20T02:36:23;98323.16;;;3.64;65.37
48622;BME280;34421;48.944;9.460;2023-04-20T02:38:48;98335.03;;;3.60;65.11
48622;BME280;34421;48.944;9.460;2023-04-20T02:41:13;98320.38;;;3.57;65.52
48622;BME280;34421;48.944;9.460;2023-04-20T02:43:38;98318.56;;;3.58;65.33
48622;BME280;34421;48.944;9.460;2023-04-20T02:46:04;98315.47;;;3.54;65.65
48622;BME280;34421;48.944;9.460;2023-04-20T02:48:29;98306.44;;;3.49;65.75
48622;BME280;34421;48.944;9.460;2023-04-20T02:50:54;98314.47;;;3.47;65.13
48622;BME280;34421;48.944;9.460;2023-04-20T02:53:21;98315.28;;;3.48;65.72
48622;BME280;34421;48.944;9.460;2023-04-20T02:55:46;98316.78;;;3.42;65.91
48622;BME280;34421;48.944;9.460;2023-04-20T02:58:11;98314.69;;;3.29;65.73
48622;BME280;34421;48.944;9.460;2023-04-20T03:00:37;98311.56;;;3.26;65.59
48622;BME280;34421;48.944;9.460;2023-04-20T03:03:02;98321.75;;;3.29;66.35
48622;BME280;34421;48.944;9.460;2023-04-20T03:05:27;98311.72;;;3.24;65.68
48622;BME280;34421;48.944;9.460;2023-04-20T03:07:52;98319.78;;;3.23;66.06
48622;BME280;34421;48.944;9.460;2023-04-20T03:10:17;98317.16;;;3.23;65.65
48622;BME280;34421;48.944;9.460;2023-04-20T03:12:43;98311.09;;;3.22;65.71
48622;BME280;34421;48.944;9.460;2023-04-20T03:15:08;98315.88;;;3.18;65.90
48622;BME280;34421;48.944;9.460;2023-04-20T03:17:34;98320.63;;;3.15;65.89
48622;BME280;34421;48.944;9.460;2023-04-20T03:19:59;98314.72;;;3.05;66.12
48622;BME280;34421;48.944;9.460;2023-04-20T03:22:24;98313.09;;;3.04;66.52
48622;BME280;34421;48.944;9.460;2023-04-20T03:24:50;98315.38;;;3.07;66.23
48622;BME280;34421;48.944;9.460;2023-04-20T03:27:16;98311.44;;;3.11;66.23
48622;BME280;34421;48.944;9.460;2023-04-20T03:29:41;98311.75;;;3.16;66.25
48622;BME280;34421;48.944;9.460;2023-04-20T03:32:06;98303.53;;;3.19;66.13
48622;BME280;34421;48.944;9.460;2023-04-20T03:34:31;98305.50;;;3.25;66.56
48622;BME280;34421;48.944;9.460;2023-04-20T03:36:56;98305.97;;;3.29;66.91
48622;BME280;34421;48.944;9.460;2023-04-20T03:39:22;98305.81;;;3.30;66.65
48622;BME280;34421;48.944;9.460;2023-04-20T03:41:47;98306.44;;;3.32;65.65
48622;BME280;34421;48.944;9.460;2023-04-20T03:44:12;98301.53;;;3.29;65.83
48622;BME280;34421;48.944;9.460;2023-04-20T03:46:39;98298.56;;;3.24;65.93
48622;BME280;34421;48.944;9.460;2023-04-20T03:49:05;98295.31;;;3.22;66.85
48622;BME280;34421;48.944;9.460;2023-04-20T03:51:30;98289.03;;;3.23;66.52
48622;BME280;34421;48.944;9.460;2023-04-20T03:53:56;98301.38;;;3.23;65.85
48622;BME280;34421;48.944;9.460;2023-04-20T03:56:21;98303.00;;;3.24;66.71
48622;BME280;34421;48.944;9.460;2023-04-20T03:58:46;98295.94;;;3.24;66.73
48622;BME280;34421;48.944;9.460;2023-04-20T04:01:12;98289.56;;;3.18;66.81
48622;BME280;34421;48.944;9.460;2023-04-20T04:03:37;98295.63;;;3.19;66.32
48622;BME280;34421;48.944;9.460;2023-04-20T04:06:02;98294.50;;;3.13;66.44
48622;BME280;34421;48.944;9.460;2023-04-20T04:08:28;98292.69;;;3.14;66.52
48622;BME280;34421;48.944;9.460;2023-04-20T04:10:53;98290.72;;;3.16;66.49
48622;BME280;34421;48.944;9.460;2023-04-20T04:13:18;98286.94;;;3.18;67.38
48622;BME280;34421;48.944;9.460;2023-04-20T04:15:44;98285.13;;;3.19;67.43
48622;BME280;34421;48.944;9.460;2023-04-20T04:18:09;98287.75;;;3.19;66.80
48622;BME280;34421;48.944;9.460;2023-04-20T04:20:34;98282.31;;;3.20;67.44
48622;BME280;34421;48.944;9.460;2023-04-20T04:22:59;98285.94;;;3.19;67.19
48622;BME280;34421;48.944;9.460;2023-04-20T04:25:25;98285.75;;;3.21;66.92
48622;BME280;34421;48.944;9.460;2023-04-20T04:27:50;98280.47;;;3.21;67.26
48622;BME280;34421;48.944;9.460;2023-04-20T04:30:15;98282.78;;;3.24;66.94
48622;BME280;34421;48.944;9.460;2023-04-20T04:32:42;98284.09;;;3.28;66.72
48622;BME280;34421;48.944;9.460;2023-04-20T04:35:12;98289.03;;;3.31;66.57
48622;BME280;34421;48.944;9.460;2023-04-20T04:37:37;98283.59;;;3.33;66.39
48622;BME280;34421;48.944;9.460;2023-04-20T04:40:02;98277.97;;;3.36;67.02
48622;BME280;34421;48.944;9.460;2023-04-20T04:42:31;98279.13;;;3.41;67.53
48622;BME280;34421;48.944;9.460;2023-04-20T04:44:56;98276.50;;;3.41;67.30
48622;BME280;34421;48.944;9.460;2023-04-20T04:47:22;98268.91;;;3.47;66.94
48622;BME280;34421;48.944;9.460;2023-04-20T04:49:48;98268.91;;;3.47;66.30
48622;BME280;34421;48.944;9.460;2023-04-20T04:52:13;98275.19;;;3.46;67.01
48622;BME280;34421;48.944;9.460;2023-04-20T04:54:39;98268.09;;;3.46;66.38
48622;BME280;34421;48.944;9.460;2023-04-20T04:57:04;98264.78;;;3.52;66.30
48622;BME280;34421;48.944;9.460;2023-04-20T04:59:30;98267.88;;;3.56;67.28
48622;BME280;34421;48.944;9.460;2023-04-20T05:01:55;98266.72;;;3.58;66.73
48622;BME280;34421;48.944;9.460;2023-04-20T05:04:21;98262.13;;;3.60;66.91
48622;BME280;34421;48.944;9.460;2023-04-20T05:06:46;98271.16;;;3.66;66.98
48622;BME280;34421;48.944;9.460;2023-04-20T05:09:11;98266.84;;;3.73;66.89
48622;BME280;34421;48.944;9.460;2023-04-20T05:11:36;98265.13;;;3.80;65.66
48622;BME280;34421;48.944;9.460;2023-04-20T05:14:02;98276.00;;;3.85;67.16
48622;BME280;34421;48.944;9.460;2023-04-20T05:16:27;98278.94;;;3.91;66.57
48622;BME280;34421;48.944;9.460;2023-04-20T05:18:53;98266.34;;;4.01;65.80
48622;BME280;34421;48.944;9.460;2023-04-20T05:21:18;98265.63;;;4.15;65.88
48622;BME280;34421;48.944;9.460;2023-04-20T05:23:43;98280.03;;;4.27;66.54
48622;BME280;34421;48.944;9.460;2023-04-20T05:26:08;98283.63;;;4.34;67.03
48622;BME280;34421;48.944;9.460;2023-04-20T05:28:34;98277.31;;;4.44;66.09
48622;BME280;34421;48.944;9.460;2023-04-20T05:30:59;98270.41;;;4.57;66.94
48622;BME280;34421;48.944;9.460;2023-04-20T05:33:25;98279.38;;;4.71;65.31
48622;BME280;34421;48.944;9.460;2023-04-20T05:35:54;98270.88;;;4.84;65.75
48622;BME280;34421;48.944;9.460;2023-04-20T05:38:20;98271.25;;;4.96;66.06
48622;BME280;34421;48.944;9.460;2023-04-20T05:40:45;98269.28;;;5.13;65.57
48622;BME280;34421;48.944;9.460;2023-04-20T05:43:10;98276.41;;;5.27;65.16
48622;BME280;34421;48.944;9.460;2023-04-20T05:45:36;98275.41;;;5.43;65.31
48622;BME280;34421;48.944;9.460;2023-04-20T05:48:01;98281.50;;;5.58;64.02
48622;BME280;34421;48.944;9.460;2023-04-20T05:50:26;98275.22;;;5.74;64.57
48622;BME280;34421;48.944;9.460;2023-04-20T05:52:52;98278.44;;;5.91;63.79
48622;BME280;34421;48.944;9.460;2023-04-20T05:55:18;98274.44;;;6.10;63.86
48622;BME280;34421;48.944;9.460;2023-04-20T05:57:43;98275.66;;;6.29;63.74
48622;BME280;34421;48.944;9.460;2023-04-20T06:00:09;98278.25;;;6.44;62.20
48622;BME280;34421;48.944;9.460;2023-04-20T06:02:35;98274.41;;;6.68;62.27
48622;BME280;34421;48.944;9.460;2023-04-20T06:05:00;98274.25;;;6.97;61.88
48622;BME280;34421;48.944;9.460;2023-04-20T06:07:26;98274.44;;;7.24;61.29
48622;BME280;34421;48.944;9.460;2023-04-20T06:09:51;98269.31;;;7.50;60.47
48622;BME280;34421;48.944;9.460;2023-04-20T06:12:16;98263.50;;;7.68;60.02
48622;BME280;34421;48.944;9.460;2023-04-20T06:14:41;98263.78;;;7.87;59.78
48622;BME280;34421;48.944;9.460;2023-04-20T06:17:06;98264.22;;;7.97;59.01
48622;BME280;34421;48.944;9.460;2023-04-20T06:19:32;98266.66;;;7.98;58.55
48622;BME280;34421;48.944;9.460;2023-04-20T06:21:57;98260.56;;;7.98;58.73
48622;BME280;34421;48.944;9.460;2023-04-20T06:24:22;98259.34;;;8.07;58.74
48622;BME280;34421;48.944;9.460;2023-04-20T06:26:48;98255.09;;;8.13;57.92
48622;BME280;34421;48.944;9.460;2023-04-20T06:29:13;98255.75;;;8.28;57.61
48622;BME280;34421;48.944;9.460;2023-04-20T06:31:38;98252.53;;;8.53;57.67
48622;BME280;34421;48.944;9.460;2023-04-20T06:34:03;98246.22;;;8.74;57.06
48622;BME280;34421;48.944;9.460;2023-04-20T06:36:29;98250.94;;;8.85;57.03
48622;BME280;34421;48.944;9.460;2023-04-20T06:38:55;98250.13;;;9.04;56.62
48622;BME280;34421;48.944;9.460;2023-04-20T06:41:20;98248.84;;;9.33;55.90
48622;BME280;34421;48.944;9.460;2023-04-20T06:43:45;98250.41;;;9.68;55.69
48622;BME280;34421;48.944;9.460;2023-04-20T06:46:10;98252.31;;;9.99;54.61
48622;BME280;34421;48.944;9.460;2023-04-20T06:48:36;98254.56;;;10.47;52.67
48622;BME280;34421;48.944;9.460;2023-04-20T06:51:01;98244.63;;;10.86;52.73
48622;BME280;34421;48.944;9.460;2023-04-20T06:53:26;98247.91;;;11.06;51.48
48622;BME280;34421;48.944;9.460;2023-04-20T06:55:54;98239.09;;;11.12;51.15
48622;BME280;34421;48.944;9.460;2023-04-20T06:58:20;98243.38;;;11.13;50.29
48622;BME280;34421;48.944;9.460;2023-04-20T07:00:45;98240.19;;;11.23;50.49
48622;BME280;34421;48.944;9.460;2023-04-20T07:03:11;98237.63;;;13.16;48.04
48622;BME280;34421;48.944;9.460;2023-04-20T07:05:36;98236.84;;;17.39;40.22
48622;BME280;34421;48.944;9.460;2023-04-20T07:08:02;98236.50;;;20.18;34.77
48622;BME280;34421;48.944;9.460;2023-04-20T07:10:27;98228.25;;;22.89;30.84
48622;BME280;34421;48.944;9.460;2023-04-20T07:12:52;98231.44;;;24.62;27.84
48622;BME280;34421;48.944;9.460;2023-04-20T07:15:17;98225.47;;;25.99;27.65
48622;BME280;34421;48.944;9.460;2023-04-20T07:17:42;98217.22;;;27.93;23.90
48622;BME280;34421;48.944;9.460;2023-04-20T07:20:08;98229.66;;;26.13;24.17
48622;BME280;34421;48.944;9.460;2023-04-20T07:22:34;98224.25;;;25.11;24.87
48622;BME280;34421;48.944;9.460;2023-04-20T07:25:00;98219.06;;;23.51;26.27
48622;BME280;34421;48.944;9.460;2023-04-20T07:27:27;98233.31;;;22.01;28.35
48622;BME280;34421;48.944;9.460;2023-04-20T07:29:53;98230.66;;;20.90;29.67
48622;BME280;34421;48.944;9.460;2023-04-20T07:32:19;98235.75;;;20.08;29.96
48622;BME280;34421;48.944;9.460;2023-04-20T07:34:44;98222.63;;;19.86;31.12
48622;BME280;34421;48.944;9.460;2023-04-20T07:37:10;98223.06;;;20.08;30.79
48622;BME280;34421;48.944;9.460;2023-04-20T07:39:36;98220.03;;;20.99;30.36
48622;BME280;34421;48.944;9.460;2023-04-20T07:42:01;98229.03;;;22.38;28.04
48622;BME280;34421;48.944;9.460;2023-04-20T07:44:27;98218.69;;;25.87;25.49
48622;BME280;34421;48.944;9.460;2023-04-20T07:46:53;98223.66;;;27.50;20.89
48622;BME280;34421;48.944;9.460;2023-04-20T07:49:19;98231.28;;;24.81;23.22
48622;BME280;34421;48.944;9.460;2023-04-20T07:51:44;98221.44;;;25.96;23.68
48622;BME280;34421;48.944;9.460;2023-04-20T07:54:10;98215.91;;;26.27;23.40
48622;BME280;34421;48.944;9.460;2023-04-20T07:56:35;98228.41;;;24.27;24.42
48622;BME280;34421;48.944;9.460;2023-04-20T07:59:00;98234.19;;;22.16;26.97
48622;BME280;34421;48.944;9.460;2023-04-20T08:01:25;98224.56;;;20.74;28.81
48622;BME280;34421;48.944;9.460;2023-04-20T08:03:51;98228.00;;;19.91;29.60
48622;BME280;34421;48.944;9.460;2023-04-20T08:06:18;98236.81;;;19.16;30.96
48622;BME280;34421;48.944;9.460;2023-04-20T08:08:43;98232.69;;;18.27;32.29
48622;BME280;34421;48.944;9.460;2023-04-20T08:11:09;98229.78;;;17.28;34.09
48622;BME280;34421;48.944;9.460;2023-04-20T08:13:34;98228.97;;;16.58;34.54
48622;BME280;34421;48.944;9.460;2023-04-20T08:15:59;98228.59;;;15.95;36.11
48622;BME280;34421;48.944;9.460;2023-04-20T08:18:25;98232.09;;;15.18;37.29
48622;BME280;34421;48.944;9.460;2023-04-20T08:20:50;98233.88;;;14.62;38.18
48622;BME280;34421;48.944;9.460;2023-04-20T08:23:15;98225.81;;;14.16;38.85
48622;BME280;34421;48.944;9.460;2023-04-20T08:25:40;98230.47;;;13.80;39.92
48622;BME280;34421;48.944;9.460;2023-04-20T08:28:06;98233.09;;;13.52;40.42
48622;BME280;34421;48.944;9.460;2023-04-20T08:30:31;98236.56;;;13.17;40.98
48622;BME280;34421;48.944;9.460;2023-04-20T08:32:57;98231.91;;;13.00;40.89
48622;BME280;34421;48.944;9.460;2023-04-20T08:35:22;98228.78;;;12.92;41.15
48622;BME280;34421;48.944;9.460;2023-04-20T08:37:47;98230.25;;;12.88;42.70
48622;BME280;34421;48.944;9.460;2023-04-20T08:40:12;98225.16;;;12.86;42.38
48622;BME280;34421;48.944;9.460;2023-04-20T08:42:38;98230.50;;;12.86;43.23
48622;BME280;34421;48.944;9.460;2023-04-20T08:45:03;98225.97;;;12.87;42.85
48622;BME280;34421;48.944;9.460;2023-04-20T08:47:29;98229.25;;;12.89;43.70
48622;BME280;34421;48.944;9.460;2023-04-20T08:49:55;98229.13;;;12.95;43.42
48622;BME280;34421;48.944;9.460;2023-04-20T08:52:20;98229.91;;;12.84;43.72
48622;BME280;34421;48.944;9.460;2023-04-20T08:54:45;98228.28;;;12.71;44.14
48622;BME280;34421;48.944;9.460;2023-04-20T08:57:11;98227.09;;;12.56;43.59
48622;BME280;34421;48.944;9.460;2023-04-20T08:59:36;98231.50;;;12.50;44.07
48622;BME280;34421;48.944;9.460;2023-04-20T09:02:11;98223.59;;;12.55;44.40
48622;BME280;34421;48.944;9.460;2023-04-20T09:04:37;98227.47;;;12.71;44.96
48622;BME280;34421;48.944;9.460;2023-04-20T09:07:03;98228.66;;;12.98;44.32
48622;BME280;34421;48.944;9.460;2023-04-20T09:09:28;98226.56;;;13.12;43.62
48622;BME280;34421;48.944;9.460;2023-04-20T09:12:03;98229.13;;;13.19;43.21
48622;BME280;34421;48.944;9.460;2023-04-20T09:14:28;98226.91;;;13.16;43.70
48622;BME280;34421;48.944;9.460;2023-04-20T09:16:55;98221.56;;;13.04;44.80
48622;BME280;34421;48.944;9.460;2023-04-20T09:19:29;98221.44;;;12.99;44.09
48622;BME280;34421;48.944;9.460;2023-04-20T09:21:55;98223.66;;;12.90;44.17
48622;BME280;34421;48.944;9.460;2023-04-20T09:24:22;98219.59;;;12.76;44.53
48622;BME280;34421;48.944;9.460;2023-04-20T09:26:47;98220.28;;;12.83;44.80
48622;BME280;34421;48.944;9.460;2023-04-20T09:29:16;98216.56;;;12.84;44.86
48622;BME280;34421;48.944;9.460;2023-04-20T09:31:41;98210.53;;;12.77;44.88
48622;BME280;34421;48.944;9.460;2023-04-20T09:34:06;98206.34;;;12.81;45.58
48622;BME280;34421;48.944;9.460;2023-04-20T09:36:36;98211.81;;;12.86;45.10
48622;BME280;34421;48.944;9.460;2023-04-20T09:39:15;98202.69;;;12.64;46.20
48622;BME280;34421;48.944;9.460;2023-04-20T09:41:41;98203.59;;;12.46;46.26
48622;BME280;34421;48.944;9.460;2023-04-20T09:44:07;98202.66;;;12.40;46.66
48622;BME280;34421;48.944;9.460;2023-04-20T09:46:34;98194.44;;;12.42;46.58
48622;BME280;34421;48.944;9.460;2023-04-20T09:49:00;98193.84;;;12.40;45.81
48622;BME280;34421;48.944;9.460;2023-04-20T09:51:26;98199.56;;;12.43;46.34
48622;BME280;34421;48.944;9.460;2023-04-20T09:53:55;98196.34;;;12.65;45.74
48622;BME280;34421;48.944;9.460;2023-04-20T09:56:20;98198.19;;;12.99;45.44
48622;BME280;34421;48.944;9.460;2023-04-20T09:58:46;98196.94;;;13.14;45.21
48622;BME280;34421;48.944;9.460;2023-04-20T10:01:11;98197.75;;;13.26;44.54
48622;BME280;34421;48.944;9.460;2023-04-20T10:03:36;98197.16;;;13.24;44.54
48622;BME280;34421;48.944;9.460;2023-04-20T10:06:02;98192.16;;;13.16;43.92
48622;BME280;34421;48.944;9.460;2023-04-20T10:08:27;98190.09;;;13.18;44.11
48622;BME280;34421;48.944;9.460;2023-04-20T10:10:52;98193.78;;;13.17;44.00
48622;BME280;34421;48.944;9.460;2023-04-20T10:13:17;98191.84;;;13.00;44.61
48622;BME280;34421;48.944;9.460;2023-04-20T10:15:44;98201.25;;;12.91;44.00
48622;BME280;34421;48.944;9.460;2023-04-20T10:20:44;98201.56;;;12.71;44.45
48622;BME280;34421;48.944;9.460;2023-04-20T10:23:09;98196.91;;;12.78;44.97
48622;BME280;34421;48.944;9.460;2023-04-20T10:25:35;98191.50;;;12.85;44.80
48622;BME280;34421;48.944;9.460;2023-04-20T10:28:01;98187.63;;;12.69;44.59
48622;BME280;34421;48.944;9.460;2023-04-20T10:30:30;98189.72;;;12.67;44.84
48622;BME280;34421;48.944;9.460;2023-04-20T10:35:40;98176.56;;;12.54;44.52
48622;BME280;34421;48.944;9.460;2023-04-20T10:38:05;98172.63;;;12.45;44.61
48622;BME280;34421;48.944;9.460;2023-04-20T10:40:31;98170.19;;;12.43;45.25
48622;BME280;34421;48.944;9.460;2023-04-20T10:42:56;98165.44;;;12.57;45.70
48622;BME280;34421;48.944;9.460;2023-04-20T10:45:21;98159.75;;;12.53;45.84
48622;BME280;34421;48.944;9.460;2023-04-20T10:47:57;98161.50;;;12.60;45.37
48622;BME280;34421;48.944;9.460;2023-04-20T10:50:23;98155.69;;;12.74;45.31
48622;BME280;34421;48.944;9.460;2023-04-20T10:52:48;98155.22;;;12.89;45.06
48622;BME280;34421;48.944;9.460;2023-04-20T10:55:18;98151.97;;;12.87;44.83
48622;BME280;34421;48.944;9.460;2023-04-20T10:57:43;98146.63;;;12.99;44.99
48622;BME280;34421;48.944;9.460;2023-04-20T11:00:27;98154.88;;;13.09;45.10
48622;BME280;34421;48.944;9.460;2023-04-20T11:02:55;98140.00;;;13.13;44.67
48622;BME280;34421;48.944;9.460;2023-04-20T11:05:21;98140.25;;;13.12;44.65
48622;BME280;34421;48.944;9.460;2023-04-20T11:07:53;98134.53;;;13.08;44.81
48622;BME280;34421;48.944;9.460;2023-04-20T11:10:19;98127.34;;;13.09;44.58
48622;BME280;34421;48.944;9.460;2023-04-20T11:12:44;98124.88;;;13.19;44.98
48622;BME280;34421;48.944;9.460;2023-04-20T11:15:10;98125.94;;;13.06;43.78
48622;BME280;34421;48.944;9.460;2023-04-20T11:17:36;98123.84;;;12.96;44.48
48622;BME280;34421;48.944;9.460;2023-04-20T11:22:40;98119.56;;;12.84;45.15
48622;BME280;34421;48.944;9.460;2023-04-20T11:25:08;98121.56;;;12.76;46.08
48622;BME280;34421;48.944;9.460;2023-04-20T11:27:34;98103.97;;;13.04;46.51
48622;BME280;34421;48.944;9.460;2023-04-20T11:30:00;98109.47;;;13.50;46.27
48622;BME280;34421;48.944;9.460;2023-04-20T11:32:29;98099.75;;;13.89;44.98
48622;BME280;34421;48.944;9.460;2023-04-20T11:35:02;98083.59;;;14.29;44.45
48622;BME280;34421;48.944;9.460;2023-04-20T11:37:31;98078.16;;;14.58;44.63
48622;BME280;34421;48.944;9.460;2023-04-20T11:40:00;98076.63;;;14.84;42.89
48622;BME280;34421;48.944;9.460;2023-04-20T11:42:25;98073.13;;;15.00;42.82
48622;BME280;34421;48.944;9.460;2023-04-20T11:44:51;98079.06;;;15.02;42.52
48622;BME280;34421;48.944;9.460;2023-04-20T11:47:17;98077.91;;;14.98;42.87
48622;BME280;34421;48.944;9.460;2023-04-20T11:49:42;98085.84;;;15.10;43.74
48622;BME280;34421;48.944;9.460;2023-04-20T11:52:07;98075.91;;;15.55;42.73
48622;BME280;34421;48.944;9.460;2023-04-20T11:54:33;98066.13;;;16.25;41.36
48622;BME280;34421;48.944;9.460;2023-04-20T11:56:59;98083.03;;;16.62;39.70
48622;BME280;34421;48.944;9.460;2023-04-20T11:59:24;98088.47;;;16.30;39.08
48622;BME280;34421;48.944;9.460;2023-04-20T12:01:50;98100.38;;;15.80;38.64
48622;BME280;34421;48.944;9.460;2023-04-20T12:04:16;98101.69;;;15.12;39.09
48622;BME280;34421;48.944;9.460;2023-04-20T12:06:41;98108.94;;;14.72;40.84
48622;BME280;34421;48.944;9.460;2023-04-20T12:09:06;98098.19;;;14.39;40.54
48622;BME280;34421;48.944;9.460;2023-04-20T12:11:32;98098.53;;;14.25;41.30
48622;BME280;34421;48.944;9.460;2023-04-20T12:13:57;98110.22;;;14.19;41.14
48622;BME280;34421;48.944;9.460;2023-04-20T12:16:24;98112.47;;;14.10;41.42
48622;BME280;34421;48.944;9.460;2023-04-20T12:18:49;98104.97;;;13.96;41.58
48622;BME280;34421;48.944;9.460;2023-04-20T12:21:14;98106.22;;;13.76;42.07
48622;BME280;34421;48.944;9.460;2023-04-20T12:23:40;98112.88;;;13.74;42.33
48622;BME280;34421;48.944;9.460;2023-04-20T12:26:05;98110.50;;;13.60;42.81
48622;BME280;34421;48.944;9.460;2023-04-20T12:28:30;98111.06;;;13.62;43.04
48622;BME280;34421;48.944;9.460;2023-04-20T12:30:56;98103.28;;;13.61;43.46
48622;BME280;34421;48.944;9.460;2023-04-20T12:33:21;98113.47;;;13.35;43.23
48622;BME280;34421;48.944;9.460;2023-04-20T12:35:46;98114.31;;;13.12;44.10
48622;BME280;34421;48.944;9.460;2023-04-20T12:38:11;98112.13;;;13.09;43.87
48622;BME280;34421;48.944;9.460;2023-04-20T12:40:37;98105.50;;;13.00;44.60
48622;BME280;34421;48.944;9.460;2023-04-20T12:43:02;98117.81;;;13.01;44.57
48622;BME280;34421;48.944;9.460;2023-04-20T12:45:27;98097.25;;;13.02;44.40
48622;BME280;34421;48.944;9.460;2023-04-20T12:47:53;98102.44;;;13.20;44.21
48622;BME280;34421;48.944;9.460;2023-04-20T12:50:18;98099.44;;;13.05;44.57
48622;BME280;34421;48.944;9.460;2023-04-20T12:52:43;98111.53;;;12.95;44.47
48622;BME280;34421;48.944;9.460;2023-04-20T12:55:08;98103.31;;;12.97;44.97
48622;BME280;34421;48.944;9.460;2023-04-20T12:57:35;98103.06;;;12.87;45.44
48622;BME280;34421;48.944;9.460;2023-04-20T13:00:00;98105.28;;;12.78;45.78
48622;BME280;34421;48.944;9.460;2023-04-20T13:02:29;98106.09;;;12.78;46.27
48622;BME280;34421;48.944;9.460;2023-04-20T13:04:55;98106.22;;;12.72;45.70